Time;durP1;ratioP1;P1;durP2;ratioP2;P2;SDS_P1;SDS_P2;PMS_P1;PMS_P2;Temp;Humidity;BMP_temperature;BMP_pressure;BME280_temperature;BME280_humidity;BME280_pressure;Samples;Min_cycle;Max_cycle;Signal;HPM_P1;HPM_P2
2021/01/20 00:03:17;;;;;;;19.27;16.10;;;;;;;;;;15060039;29;20233;-76
2021/01/20 00:10:47;;;;;;;19.77;16.77;;;;;;;;;;15042616;29;20208;-79
2021/01/20 00:18:16;;;;;;;18.90;15.97;;;;;;;;;;15072521;29;20337;-77
2021/01/20 00:25:47;;;;;;;20.83;16.37;;;;;;;;;;15042588;29;20216;-77
2021/01/20 00:33:15;;;;;;;19.77;16.43;;;5.20;67.60;;;;;;15053952;29;20216;-75
2021/01/20 00:40:44;;;;;;;20.03;16.63;;;;;;;;;;15060845;29;20201;-75
2021/01/20 00:48:11;;;;;;;22.43;17.97;;;;;;;;;;15035222;29;20217;-75
2021/01/20 00:55:39;;;;;;;21.60;18.27;;;4.80;69.60;;;;;;15069746;29;20226;-75
2021/01/20 01:03:13;;;;;;;21.57;18.20;;;;;;;;;;15054111;29;20213;-76
2021/01/20 01:10:41;;;;;;;20.87;18.23;;;;;;;;;;15072304;29;20201;-76
2021/01/20 01:18:13;;;;;;;21.30;17.70;;;;;;;;;;15052164;29;20225;-75
2021/01/20 01:25:40;;;;;;;22.47;17.80;;;;;;;;;;15035330;29;20260;-75
2021/01/20 01:33:08;;;;;;;23.20;19.40;;;;;;;;;;15052867;29;20201;-76
2021/01/20 01:40:41;;;;;;;21.83;17.93;;;;;;;;;;15036236;29;20584;-80
2021/01/20 01:48:17;;;;;;;21.83;17.77;;;;;;;;;;15051135;29;20228;-78
2021/01/20 01:55:49;;;;;;;20.43;16.97;;;4.60;67.20;;;;;;15033901;29;20304;-79
2021/01/20 02:03:28;;;;;;;22.63;18.73;;;;;;;;;;15050555;29;20236;-77
2021/01/20 02:11:07;;;;;;;22.97;18.47;;;4.80;66.80;;;;;;15050491;29;20221;-79
2021/01/20 02:18:36;;;;;;;22.63;17.50;;;5.40;67.30;;;;;;15050494;29;20236;-79
2021/01/20 02:26:24;;;;;;;23.73;18.27;;;5.50;66.50;;;;;;15049032;29;20193;-79
2021/01/20 02:34:14;;;;;;;22.73;18.93;;;7.20;67.80;;;;;;15065686;29;20552;-80
2021/01/20 02:41:41;;;;;;;19.23;17.17;;;;;;;;;;15049917;29;20201;-79
2021/01/20 02:49:31;;;;;;;21.80;18.33;;;;;;;;;;15062917;29;20218;-79
2021/01/20 02:57:03;;;;;;;21.73;18.57;;;;;;;;;;15043296;29;20245;-79
2021/01/20 03:04:45;;;;;;;18.60;15.97;;;5.30;66.70;;;;;;15058274;29;20220;-78
2021/01/20 03:12:13;;;;;;;21.37;17.50;;;;;;;;;;15059556;29;20247;-80
2021/01/20 03:19:40;;;;;;;22.10;17.90;;;;;;;;;;15076476;29;20221;-81
2021/01/20 03:27:07;;;;;;;19.17;17.17;;;;;;;;;;15074515;29;20197;-79
2021/01/20 03:34:34;;;;;;;23.03;17.93;;;;;;;;;;15074411;29;20578;-79
2021/01/20 03:42:05;;;;;;;22.03;17.50;;;;;;;;;;15058452;29;20260;-82
2021/01/20 03:49:32;;;;;;;21.03;18.40;;;;;;;;;;15075194;29;20220;-83
2021/01/20 03:57:02;;;;;;;23.60;17.80;;;;;;;;;;15072207;29;20237;-81
2021/01/20 04:04:29;;;;;;;21.70;17.83;;;;;;;;;;15072631;29;20222;-79
2021/01/20 04:11:57;;;;;;;18.53;15.97;;;;;;;;;;15055540;29;20198;-79
2021/01/20 04:19:25;;;;;;;18.87;16.07;;;5.90;67.20;;;;;;15056817;29;20225;-81
2021/01/20 04:26:52;;;;;;;18.03;15.70;;;;;;;;;;15055564;29;20202;-83
2021/01/20 04:34:21;;;;;;;22.47;17.37;;;;;;;;;;15054726;29;20204;-82
2021/01/20 04:41:48;;;;;;;19.07;15.97;;;;;;;;;;15039117;29;20264;-80
2021/01/20 04:49:16;;;;;;;18.03;14.97;;;;;;;;;;15052186;29;20237;-80
2021/01/20 04:56:47;;;;;;;17.07;14.57;;;;;;;;;;15053384;29;20244;-80
2021/01/20 05:04:16;;;;;;;19.30;15.47;;;5.80;74.30;;;;;;15052775;29;20232;-80
2021/01/20 05:11:44;;;;;;;18.27;14.77;;;;;;;;;;15070030;29;20276;-80
2021/01/20 05:19:11;;;;;;;17.83;15.17;;;;;;;;;;15050617;29;20237;-80
2021/01/20 05:26:44;;;;;;;17.77;15.27;;;5.40;66.10;;;;;;15035708;29;20209;-81
2021/01/20 05:34:29;;;;;;;18.03;14.77;;;6.00;66.20;;;;;;15068718;29;20213;-78
2021/01/20 05:42:07;;;;;;;22.17;17.67;;;6.30;66.20;;;;;;15051099;29;20209;-80
2021/01/20 05:49:36;;;;;;;22.13;18.90;;;;;;;;;;15050998;29;20233;-81
2021/01/20 05:57:11;;;;;;;21.17;18.87;;;;;;;;;;15050974;29;20237;-80
2021/01/20 06:04:40;;;;;;;21.27;18.33;;;;;;;;;;15035917;29;20213;-80
2021/01/20 06:12:09;;;;;;;22.90;19.17;;;;;;;;;;15066866;29;20805;-82
2021/01/20 06:19:37;;;;;;;25.53;18.27;;;;;;;;;;15038154;29;20639;-81
2021/01/20 06:27:11;;;;;;;22.57;19.57;;;;;;;;;;15077625;29;20708;-81
2021/01/20 06:34:49;;;;;;;22.80;17.97;;;8.00;67.60;;;;;;15078564;29;20268;-84
2021/01/20 06:42:31;;;;;;;28.60;22.73;;;;;;;;;;15047466;29;20205;-82
2021/01/20 06:50:02;;;;;;;24.63;18.73;;;;;;;;;;15068408;29;20273;-81
2021/01/20 06:57:31;;;;;;;25.27;19.73;;;;;;;;;;15081888;29;20249;-81
2021/01/20 07:04:58;;;;;;;24.47;19.43;;;;;;;;;;15010608;29;20336;-80
2021/01/20 07:12:26;;;;;;;20.50;18.30;;;;;;;;;;15018446;29;20217;-81
2021/01/20 07:19:54;;;;;;;25.03;17.80;;;;;;;;;;15030612;29;20265;-82
2021/01/20 07:27:20;;;;;;;21.63;17.93;;;;;;;;;;14998909;29;20213;-82
2021/01/20 07:34:48;;;;;;;19.63;15.27;;;;;;;;;;15017610;29;20645;-84
2021/01/20 07:42:18;;;;;;;20.00;15.53;;;;;;;;;;15015018;29;20245;-80
2021/01/20 07:49:54;;;;;;;19.37;15.90;;;;;;;;;;15004477;29;20217;-83
2021/01/20 07:57:41;;;;;;;20.37;17.00;;;;;;;;;;15014659;29;20234;-78
2021/01/20 08:05:12;;;;;;;17.43;15.33;;;;;;;;;;15007178;29;20632;-78
2021/01/20 08:12:39;;;;;;;19.13;15.17;;;;;;;;;;14993764;29;20200;-76
2021/01/20 08:20:06;;;;;;;26.67;19.87;;;;;;;;;;15063494;29;20236;-75
2021/01/20 08:27:35;;;;;;;23.47;19.17;;;;;;;;;;15065494;29;20193;-78
2021/01/20 08:35:03;;;;;;;20.37;16.90;;;;;;;;;;15032285;29;20213;-76
2021/01/20 08:42:40;;;;;;;29.60;18.87;;;;;;;;;;15047155;29;20247;-75
2021/01/20 08:50:07;;;;;;;30.57;23.03;;;;;;;;;;15063466;29;20672;-76
2021/01/20 08:57:34;;;;;;;22.50;19.13;;;;;;;;;;15064019;29;20321;-76
2021/01/20 09:05:04;;;;;;;26.07;20.90;;;;;;;;;;15029412;29;20236;-76
2021/01/20 09:12:34;;;;;;;34.50;20.40;;;;;;;;;;15063118;29;20197;-77
2021/01/20 09:20:02;;;;;;;25.83;17.10;;;;;;;;;;15064061;29;20597;-75
2021/01/20 09:27:33;;;;;;;25.07;15.93;;;;;;;;;;15062522;29;20245;-74
2021/01/20 09:35:00;;;;;;;21.20;14.53;;;;;;;;;;15062487;29;20192;-77
2021/01/20 09:42:29;;;;;;;17.53;12.53;;;;;;;;;;15044054;29;20224;-75
2021/01/20 09:49:56;;;;;;;12.53;10.80;;;;;;;;;;15060417;29;20243;-75
2021/01/20 09:57:23;;;;;;;17.97;10.80;;;;;;;;;;15070553;29;20239;-76
2021/01/20 10:04:50;;;;;;;12.83;9.47;;;;;;;;;;15053856;29;20229;-73
2021/01/20 10:12:18;;;;;;;12.10;8.80;;;;;;;;;;15054546;29;20512;-76
2021/01/20 10:19:45;;;;;;;12.97;9.37;;;;;;;;;;15054707;29;20236;-76
2021/01/20 10:27:14;;;;;;;11.37;8.60;;;;;;;;;;15053142;29;20866;-78
2021/01/20 10:34:43;;;;;;;13.03;8.90;;;;;;;;;;15072348;29;20187;-82
2021/01/20 10:42:11;;;;;;;12.17;8.07;;;;;;;;;;15074297;29;20629;-76
2021/01/20 10:49:38;;;;;;;13.37;8.73;;;;;;;;;;15013459;29;20222;-78
2021/01/20 10:57:08;;;;;;;9.37;7.67;;;;;;;;;;14973935;29;20233;-77
2021/01/20 11:04:35;;;;;;;14.07;8.37;;;;;;;;;;14993613;29;20221;-79
2021/01/20 11:12:03;;;;;;;10.10;7.43;;;;;;;;;;14992388;29;20190;-77
2021/01/20 11:19:34;;;;;;;9.40;7.50;;;;;;;;;;14991246;29;20229;-80
2021/01/20 11:27:03;;;;;;;8.87;7.00;;;;;;;;;;14991152;29;20194;-80
2021/01/20 11:34:31;;;;;;;11.23;7.13;;;;;;;;;;15012027;29;20256;-79
2021/01/20 11:41:58;;;;;;;8.70;6.47;;;;;;;;;;14974108;29;20229;-75
2021/01/20 11:49:25;;;;;;;8.87;6.37;;;10.80;60.20;;;;;;15005772;29;20229;-74
2021/01/20 11:56:54;;;;;;;7.53;5.77;;;;;;;;;;15005495;29;20289;-77
2021/01/20 12:04:22;;;;;;;9.20;5.77;;;;;;;;;;14988687;29;20221;-79
2021/01/20 12:11:50;;;;;;;8.67;5.87;;;;;;;;;;14973055;29;20214;-77
2021/01/20 12:19:17;;;;;;;9.60;5.57;;;;;;;;;;14988029;29;20229;-76
2021/01/20 12:26:45;;;;;;;9.23;5.67;;;;;;;;;;14987870;29;20230;-77
2021/01/20 12:34:12;;;;;;;7.40;5.40;;;;;;;;;;15004561;29;20691;-76
2021/01/20 12:41:39;;;;;;;8.50;5.60;;;;;;;;;;14987919;29;20269;-79
2021/01/20 12:49:12;;;;;;;11.33;5.00;;;;;;;;;;15009085;29;20224;-79
2021/01/20 12:56:41;;;;;;;7.30;5.20;;;;;;;;;;15011108;29;20230;-79
2021/01/20 13:04:10;;;;;;;7.17;4.80;;;;;;;;;;14986717;29;20214;-82
2021/01/20 13:11:37;;;;;;;7.30;4.40;;;;;;;;;;15013385;29;20201;-80
2021/01/20 13:19:04;;;;;;;9.00;4.80;;;12.60;60.60;;;;;;14977569;29;20241;-77
2021/01/20 13:26:34;;;;;;;10.40;5.40;;;;;;;;;;14990129;29;20198;-78
2021/01/20 13:34:00;;;;;;;6.70;5.07;;;;;;;;;;14990002;29;20201;-77
2021/01/20 13:41:28;;;;;;;8.90;5.30;;;;;;;;;;15005804;29;20245;-79
2021/01/20 13:48:56;;;;;;;8.77;5.50;;;;;;;;;;14989603;29;20237;-78
2021/01/20 13:56:25;;;;;;;10.40;5.67;;;;;;;;;;14971885;29;20326;-79
2021/01/20 14:03:52;;;;;;;7.27;4.97;;;13.70;64.60;;;;;;14972456;29;20307;-79
2021/01/20 14:11:20;;;;;;;10.53;5.53;;;;;;;;;;15003465;29;20531;-79
2021/01/20 14:18:48;;;;;;;9.43;5.23;;;;;;;;;;14976317;29;20312;-79
2021/01/20 14:26:14;;;;;;;8.47;4.63;;;;;;;;;;14974628;29;20210;-80
2021/01/20 14:33:43;;;;;;;9.97;4.87;;;;;;;;;;14988982;29;20269;-77
2021/01/20 14:41:11;;;;;;;10.03;5.00;;;;;;;;;;14993684;29;20637;-77
2021/01/20 14:48:40;;;;;;;12.90;6.40;;;9.80;56.40;;;;;;14997925;29;20238;-77
2021/01/20 14:56:14;;;;;;;11.73;6.40;;;11.00;57.80;;;;;;14991064;29;20241;-79
2021/01/20 15:03:41;;;;;;;10.47;6.37;;;;;;;;;;14997593;29;20213;-80
2021/01/20 15:11:10;;;;;;;12.03;6.97;;;;;;;;;;15001000;29;20214;-76
2021/01/20 15:18:37;;;;;;;14.57;6.80;;;;;;;;;;14985007;29;20326;-78
2021/01/20 15:26:04;;;;;;;8.77;5.80;;;;;;;;;;14996539;29;20213;-79
2021/01/20 15:33:32;;;;;;;15.23;6.10;;;;;;;;;;15006078;29;20203;-79
2021/01/20 15:41:00;;;;;;;11.97;6.57;;;;;;;;;;15002937;29;20233;-79
2021/01/20 15:48:29;;;;;;;7.80;6.00;;;;;;;;;;15008873;29;20229;-78
2021/01/20 15:56:01;;;;;;;9.90;6.20;;;;;;;;;;14991044;29;20308;-81
2021/01/20 16:03:29;;;;;;;14.87;7.33;;;;;;;;;;14979812;29;20234;-78
2021/01/20 16:10:55;;;;;;;12.40;7.57;;;;;;;;;;15007710;29;20186;-79
2021/01/20 16:18:23;;;;;;;10.83;7.27;;;;;;;;;;14990708;29;20233;-78
2021/01/20 16:25:50;;;;;;;10.93;8.00;;;;;;;;;;15010353;29;20743;-78
2021/01/20 16:33:17;;;;;;;13.07;8.37;;;;;;;;;;15000601;29;20198;-79
2021/01/20 16:40:45;;;;;;;12.60;8.40;;;;;;;;;;15008404;29;20222;-80
2021/01/20 16:48:12;;;;;;;12.97;8.57;;;;;;;;;;15010669;29;20309;-79
2021/01/20 16:55:43;;;;;;;12.07;8.87;;;11.30;61.20;;;;;;14961795;29;20238;-78
2021/01/20 17:03:13;;;;;;;10.47;8.83;;;;;;;;;;15008588;29;20214;-79
2021/01/20 17:10:41;;;;;;;14.73;9.57;;;;;;;;;;14990951;29;20189;-77
2021/01/20 17:18:09;;;;;;;15.90;9.17;;;;;;;;;;14975012;29;20593;-77
2021/01/20 17:25:37;;;;;;;14.97;9.50;;;;;;;;;;15007029;29;20270;-78
2021/01/20 17:33:04;;;;;;;15.33;9.37;;;;;;;;;;14990242;29;20578;-78
2021/01/20 17:40:31;;;;;;;16.83;10.10;;;12.80;61.30;;;;;;15006496;29;20309;-76
2021/01/20 17:47:59;;;;;;;14.03;10.40;;;10.70;60.30;;;;;;14975202;29;20218;-81
2021/01/20 17:55:28;;;;;;;14.50;9.80;;;;;;;;;;14990190;29;20268;-78
2021/01/20 18:02:56;;;;;;;16.67;10.43;;;;;;;;;;15007449;29;20276;-78
2021/01/20 18:10:24;;;;;;;14.50;9.50;;;;;;;;;;14990781;29;20563;-80
2021/01/20 18:17:53;;;;;;;14.80;9.37;;;;;;;;;;14983716;29;20273;-80
2021/01/20 18:25:25;;;;;;;16.07;9.60;;;;;;;;;;15016606;29;20201;-79
2021/01/20 18:32:52;;;;;;;14.40;8.67;;;;;;;;;;14995637;29;20207;-81
2021/01/20 18:40:19;;;;;;;17.77;9.63;;;;;;;;;;15031504;29;20233;-78
2021/01/20 18:47:46;;;;;;;14.73;8.80;;;;;;;;;;15017722;29;20316;-81
2021/01/20 18:55:13;;;;;;;16.57;8.93;;;;;;;;;;14999625;29;20603;-80
2021/01/20 19:02:40;;;;;;;14.30;9.20;;;;;;;;;;14999067;29;20218;-79
2021/01/20 19:10:11;;;;;;;13.63;8.43;;;;;;;;;;15015963;29;20202;-82
2021/01/20 19:17:38;;;;;;;14.67;8.37;;;;;;;;;;15015655;29;20222;-81
2021/01/20 19:25:07;;;;;;;12.43;7.67;;;11.50;71.20;;;;;;15001295;29;20226;-85
2021/01/20 19:32:35;;;;;;;10.93;7.27;;;;;;;;;;15039098;29;20206;-84
2021/01/20 19:40:02;;;;;;;13.47;8.30;;;;;;;;;;15005666;29;20222;-82
2021/01/20 19:47:29;;;;;;;13.10;7.50;;;;;;;;;;14995307;29;20225;-80
2021/01/20 19:54:57;;;;;;;10.20;7.00;;;;;;;;;;15010741;29;20226;-78
2021/01/20 20:02:24;;;;;;;10.53;6.37;;;;;;;;;;15015202;29;20603;-83
2021/01/20 20:09:51;;;;;;;12.10;6.27;;;;;;;;;;15012400;29;20209;-80
2021/01/20 20:17:19;;;;;;;9.33;5.90;;;;;;;;;;15014744;29;20451;-88
2021/01/20 20:24:46;;;;;;;9.30;5.47;;;;;;;;;;15028343;29;20476;-88
2021/01/20 20:32:13;;;;;;;7.97;4.83;;;;;;;;;;15004885;29;20190;-81
2021/01/20 20:39:41;;;;;;;8.50;4.53;;;;;;;;;;14996352;29;20225;-83
2021/01/20 20:47:09;;;;;;;9.23;5.23;;;;;;;;;;15011979;29;20322;-84
2021/01/20 20:54:36;;;;;;;8.00;5.20;;;;;;;;;;15010325;29;20579;-78
2021/01/20 21:02:03;;;;;;;7.53;4.60;;;;;;;;;;15010590;29;20696;-81
2021/01/20 21:09:33;;;;;;;5.67;4.30;;;;;;;;;;15003742;29;20285;-77
2021/01/20 21:17:00;;;;;;;7.27;4.20;;;;;;;;;;14988719;29;20351;-78
2021/01/20 21:24:28;;;;;;;8.47;4.47;;;;;;;;;;15005269;29;20221;-79
2021/01/20 21:31:55;;;;;;;5.83;3.90;;;;;;;;;;14985758;29;20262;-78
2021/01/20 21:39:23;;;;;;;5.33;3.93;;;;;;;;;;14991692;29;20210;-78
2021/01/20 21:46:50;;;;;;;5.83;4.17;;;;;;;;;;15007920;29;21003;-78
2021/01/20 21:54:17;;;;;;;7.40;3.77;;;;;;;;;;14994320;29;20265;-79
2021/01/20 22:01:44;;;;;;;5.67;3.80;;;;;;;;;;14992916;29;20233;-77
2021/01/20 22:09:14;;;;;;;6.57;4.10;;;;;;;;;;15027300;29;20490;-77
2021/01/20 22:16:41;;;;;;;6.63;4.53;;;;;;;;;;15010203;29;20309;-78
2021/01/20 22:24:08;;;;;;;9.47;5.03;;;;;;;;;;15026366;29;20718;-80
2021/01/20 22:31:39;;;;;;;8.27;4.97;;;;;;;;;;15010408;29;20276;-81
2021/01/20 22:39:06;;;;;;;6.13;3.90;;;;;;;;;;15041315;29;20226;-85
2021/01/20 22:46:32;;;;;;;6.47;4.13;;;;;;;;;;15036212;29;20232;-86
2021/01/20 22:54:00;;;;;;;7.50;5.07;;;;;;;;;;15013133;29;20229;-81
2021/01/20 23:01:28;;;;;;;9.63;5.93;;;;;;;;;;15022356;29;20206;-85
2021/01/20 23:08:55;;;;;;;8.90;5.77;;;;;;;;;;15019969;29;20206;-80
2021/01/20 23:16:22;;;;;;;9.57;5.60;;;;;;;;;;14998256;29;20204;-79
2021/01/20 23:23:51;;;;;;;8.27;5.30;;;8.30;75.30;;;;;;15000745;29;20226;-77
2021/01/20 23:31:18;;;;;;;5.57;4.73;;;;;;;;;;14999833;29;20226;-78
2021/01/20 23:38:47;;;;;;;5.87;4.63;;;;;;;;;;15001884;29;20277;-78
2021/01/20 23:46:15;;;;;;;7.53;5.20;;;;;;;;;;15002887;29;20214;-83
2021/01/20 23:53:42;;;;;;;7.07;4.83;;;;;;;;;;14996827;29;20221;-82
